sensor_id;sensor_type;location;lat;lon;timestamp;pressure;altitude;pressure_sealevel;temperature;humidity
47524;BME280;33253;42.144;25.884;2023-03-01T00:01:23;101309.47;;;5.73;100.00
47524;BME280;33253;42.144;25.884;2023-03-01T00:03:50;101310.06;;;5.69;100.00
47524;BME280;33253;42.144;25.884;2023-03-01T00:06:16;101287.16;;;5.46;100.00
47524;BME280;33253;42.144;25.884;2023-03-01T00:08:41;101288.72;;;5.44;100.00
47524;BME280;33253;42.144;25.884;2023-03-01T00:11:12;101325.44;;;5.69;100.00
47524;BME280;33253;42.144;25.884;2023-03-01T00:13:38;101312.19;;;5.62;100.00
47524;BME280;33253;42.144;25.884;2023-03-01T00:16:06;101315.09;;;5.67;100.00
47524;BME280;33253;42.144;25.884;2023-03-01T00:18:31;101293.25;;;5.60;100.00
47524;BME280;33253;42.144;25.884;2023-03-01T00:20:57;101295.47;;;5.67;100.00
47524;BME280;33253;42.144;25.884;2023-03-01T00:23:23;101291.47;;;5.59;100.00
47524;BME280;33253;42.144;25.884;2023-03-01T00:25:50;101248.44;;;5.30;100.00
47524;BME280;33253;42.144;25.884;2023-03-01T00:28:16;101296.16;;;5.53;100.00
47524;BME280;33253;42.144;25.884;2023-03-01T00:30:42;101229.53;;;5.28;100.00
47524;BME280;33253;42.144;25.884;2023-03-01T00:33:08;101280.25;;;5.57;100.00
47524;BME280;33253;42.144;25.884;2023-03-01T00:35:34;101259.88;;;5.47;100.00
47524;BME280;33253;42.144;25.884;2023-03-01T00:38:00;101277.78;;;5.59;100.00
47524;BME280;33253;42.144;25.884;2023-03-01T00:40:29;101284.94;;;5.51;100.00
47524;BME280;33253;42.144;25.884;2023-03-01T00:42:55;101281.50;;;5.39;100.00
47524;BME280;33253;42.144;25.884;2023-03-01T00:45:20;101279.13;;;5.42;100.00
47524;BME280;33253;42.144;25.884;2023-03-01T00:47:46;101280.94;;;5.43;100.00
47524;BME280;33253;42.144;25.884;2023-03-01T00:50:12;101282.22;;;5.49;100.00
47524;BME280;33253;42.144;25.884;2023-03-01T00:52:38;101270.09;;;5.47;100.00
47524;BME280;33253;42.144;25.884;2023-03-01T00:55:04;101282.22;;;5.49;100.00
47524;BME280;33253;42.144;25.884;2023-03-01T00:57:30;101255.13;;;5.40;100.00
47524;BME280;33253;42.144;25.884;2023-03-01T00:59:56;101266.78;;;5.48;100.00
47524;BME280;33253;42.144;25.884;2023-03-01T01:02:21;101258.44;;;5.39;100.00
47524;BME280;33253;42.144;25.884;2023-03-01T01:04:47;101198.06;;;5.05;100.00
47524;BME280;33253;42.144;25.884;2023-03-01T01:07:13;101252.84;;;5.44;100.00
47524;BME280;33253;42.144;25.884;2023-03-01T01:09:39;101234.75;;;5.29;100.00
47524;BME280;33253;42.144;25.884;2023-03-01T01:12:06;101246.97;;;5.45;100.00
47524;BME280;33253;42.144;25.884;2023-03-01T01:14:31;101245.16;;;5.44;100.00
47524;BME280;33253;42.144;25.884;2023-03-01T01:16:57;101245.06;;;5.43;100.00
47524;BME280;33253;42.144;25.884;2023-03-01T01:19:24;101225.16;;;5.39;100.00
47524;BME280;33253;42.144;25.884;2023-03-01T01:21:49;101234.25;;;5.47;100.00
47524;BME280;33253;42.144;25.884;2023-03-01T01:24:15;101233.13;;;5.55;100.00
47524;BME280;33253;42.144;25.884;2023-03-01T01:26:42;101216.97;;;5.56;100.00
47524;BME280;33253;42.144;25.884;2023-03-01T01:29:08;101215.53;;;5.60;100.00
47524;BME280;33253;42.144;25.884;2023-03-01T01:31:36;101212.91;;;5.72;100.00
47524;BME280;33253;42.144;25.884;2023-03-01T01:34:03;101193.94;;;5.56;100.00
47524;BME280;33253;42.144;25.884;2023-03-01T01:36:29;101176.59;;;5.52;100.00
47524;BME280;33253;42.144;25.884;2023-03-01T01:38:55;101224.66;;;5.81;100.00
47524;BME280;33253;42.144;25.884;2023-03-01T01:41:22;101192.41;;;5.72;100.00
47524;BME280;33253;42.144;25.884;2023-03-01T01:44:08;101183.00;;;5.59;100.00
47524;BME280;33253;42.144;25.884;2023-03-01T01:46:36;101232.78;;;5.88;100.00
47524;BME280;33253;42.144;25.884;2023-03-01T01:49:24;101229.44;;;5.89;100.00
47524;BME280;33253;42.144;25.884;2023-03-01T01:51:57;101184.09;;;5.62;100.00
47524;BME280;33253;42.144;25.884;2023-03-01T01:54:34;101187.34;;;5.60;100.00
47524;BME280;33253;42.144;25.884;2023-03-01T01:57:04;101216.47;;;5.74;100.00
47524;BME280;33253;42.144;25.884;2023-03-01T01:59:33;101229.84;;;5.70;100.00
47524;BME280;33253;42.144;25.884;2023-03-01T02:02:02;101233.41;;;5.72;100.00
47524;BME280;33253;42.144;25.884;2023-03-01T02:04:28;101232.19;;;5.66;100.00
47524;BME280;33253;42.144;25.884;2023-03-01T02:07:01;101222.88;;;5.55;100.00
47524;BME280;33253;42.144;25.884;2023-03-01T02:09:28;101234.66;;;5.65;100.00
47524;BME280;33253;42.144;25.884;2023-03-01T02:11:55;101251.22;;;5.70;100.00
47524;BME280;33253;42.144;25.884;2023-03-01T02:14:21;101246.69;;;5.66;100.00
47524;BME280;33253;42.144;25.884;2023-03-01T02:16:46;101243.53;;;5.70;100.00
47524;BME280;33253;42.144;25.884;2023-03-01T02:19:23;101236.22;;;5.63;100.00
47524;BME280;33253;42.144;25.884;2023-03-01T02:22:25;101234.75;;;5.66;100.00
47524;BME280;33253;42.144;25.884;2023-03-01T02:30:15;101241.16;;;5.85;100.00
47524;BME280;33253;42.144;25.884;2023-03-01T02:32:41;101240.38;;;5.86;100.00
47524;BME280;33253;42.144;25.884;2023-03-01T02:35:12;101225.00;;;5.86;100.00
47524;BME280;33253;42.144;25.884;2023-03-01T02:37:40;101230.63;;;5.94;100.00
47524;BME280;33253;42.144;25.884;2023-03-01T02:40:10;101235.16;;;5.98;100.00
47524;BME280;33253;42.144;25.884;2023-03-01T02:42:49;101235.84;;;5.95;100.00
47524;BME280;33253;42.144;25.884;2023-03-01T02:45:16;101223.72;;;5.93;100.00
47524;BME280;33253;42.144;25.884;2023-03-01T02:47:41;101236.13;;;5.98;100.00
47524;BME280;33253;42.144;25.884;2023-03-01T02:53:02;101192.13;;;5.67;100.00
47524;BME280;33253;42.144;25.884;2023-03-01T02:55:32;101189.41;;;5.65;100.00
47524;BME280;33253;42.144;25.884;2023-03-01T02:57:59;101169.50;;;5.61;100.00
47524;BME280;33253;42.144;25.884;2023-03-01T03:00:31;101222.19;;;5.83;100.00
47524;BME280;33253;42.144;25.884;2023-03-01T03:02:58;101229.13;;;5.84;100.00
47524;BME280;33253;42.144;25.884;2023-03-01T03:05:28;101225.41;;;5.92;100.00
47524;BME280;33253;42.144;25.884;2023-03-01T03:07:54;101212.53;;;5.79;100.00
47524;BME280;33253;42.144;25.884;2023-03-01T03:10:31;101224.94;;;5.73;100.00
47524;BME280;33253;42.144;25.884;2023-03-01T03:13:06;101224.59;;;5.68;100.00
47524;BME280;33253;42.144;25.884;2023-03-01T03:15:32;101224.09;;;5.60;100.00
47524;BME280;33253;42.144;25.884;2023-03-01T03:18:03;101212.19;;;5.61;100.00
47524;BME280;33253;42.144;25.884;2023-03-01T03:20:29;101218.59;;;5.67;100.00
47524;BME280;33253;42.144;25.884;2023-03-01T03:22:56;101225.00;;;5.61;100.00
47524;BME280;33253;42.144;25.884;2023-03-01T03:25:24;101222.44;;;5.61;100.00
47524;BME280;33253;42.144;25.884;2023-03-01T03:27:50;101213.16;;;5.63;100.00
47524;BME280;33253;42.144;25.884;2023-03-01T03:30:23;101215.44;;;5.58;100.00
47524;BME280;33253;42.144;25.884;2023-03-01T03:32:49;101214.09;;;5.51;100.00
47524;BME280;33253;42.144;25.884;2023-03-01T03:37:44;101226.81;;;5.50;100.00
47524;BME280;33253;42.144;25.884;2023-03-01T03:40:37;101223.03;;;5.45;100.00
47524;BME280;33253;42.144;25.884;2023-03-01T03:43:04;101220.13;;;5.52;100.00
47524;BME280;33253;42.144;25.884;2023-03-01T03:45:30;101210.94;;;5.56;100.00
47524;BME280;33253;42.144;25.884;2023-03-01T03:47:58;101171.53;;;5.28;100.00
47524;BME280;33253;42.144;25.884;2023-03-01T03:50:24;101202.03;;;5.37;100.00
47524;BME280;33253;42.144;25.884;2023-03-01T03:52:49;101204.25;;;5.32;100.00
47524;BME280;33253;42.144;25.884;2023-03-01T03:55:15;101170.13;;;5.08;100.00
47524;BME280;33253;42.144;25.884;2023-03-01T03:57:45;101197.59;;;5.23;100.00
47524;BME280;33253;42.144;25.884;2023-03-01T04:00:20;101200.59;;;5.17;100.00
47524;BME280;33253;42.144;25.884;2023-03-01T04:02:47;101200.72;;;5.18;100.00
47524;BME280;33253;42.144;25.884;2023-03-01T04:05:14;101204.59;;;5.25;100.00
47524;BME280;33253;42.144;25.884;2023-03-01T04:07:41;101200.47;;;5.27;100.00
47524;BME280;33253;42.144;25.884;2023-03-01T04:10:13;101179.00;;;5.13;100.00
47524;BME280;33253;42.144;25.884;2023-03-01T04:12:39;101174.69;;;5.12;100.00
47524;BME280;33253;42.144;25.884;2023-03-01T04:15:06;101199.63;;;5.15;100.00
47524;BME280;33253;42.144;25.884;2023-03-01T04:17:43;101188.47;;;5.26;100.00
47524;BME280;33253;42.144;25.884;2023-03-01T04:20:17;101155.00;;;4.99;100.00
47524;BME280;33253;42.144;25.884;2023-03-01T04:22:43;101187.69;;;5.15;100.00
47524;BME280;33253;42.144;25.884;2023-03-01T04:25:13;101184.47;;;5.18;100.00
47524;BME280;33253;42.144;25.884;2023-03-01T04:27:40;101180.56;;;5.23;100.00
47524;BME280;33253;42.144;25.884;2023-03-01T04:30:06;101131.34;;;4.90;100.00
47524;BME280;33253;42.144;25.884;2023-03-01T04:32:32;101182.47;;;5.14;100.00
47524;BME280;33253;42.144;25.884;2023-03-01T04:34:57;101174.81;;;5.14;100.00
47524;BME280;33253;42.144;25.884;2023-03-01T04:37:23;101173.88;;;5.25;100.00
47524;BME280;33253;42.144;25.884;2023-03-01T04:39:49;101179.00;;;5.25;100.00
47524;BME280;33253;42.144;25.884;2023-03-01T04:42:15;101178.31;;;5.28;100.00
47524;BME280;33253;42.144;25.884;2023-03-01T04:44:40;101176.44;;;5.25;100.00
47524;BME280;33253;42.144;25.884;2023-03-01T04:47:06;101195.03;;;5.23;100.00
47524;BME280;33253;42.144;25.884;2023-03-01T04:49:31;101168.78;;;5.13;100.00
47524;BME280;33253;42.144;25.884;2023-03-01T04:51:57;101187.03;;;5.18;100.00
47524;BME280;33253;42.144;25.884;2023-03-01T04:54:30;101187.78;;;5.17;100.00
47524;BME280;33253;42.144;25.884;2023-03-01T04:56:55;101195.38;;;5.15;100.00
47524;BME280;33253;42.144;25.884;2023-03-01T04:59:21;101195.81;;;5.22;100.00
47524;BME280;33253;42.144;25.884;2023-03-01T05:01:54;101197.06;;;5.15;100.00
47524;BME280;33253;42.144;25.884;2023-03-01T05:04:24;101195.47;;;5.17;100.00
47524;BME280;33253;42.144;25.884;2023-03-01T05:06:49;101182.81;;;5.18;100.00
47524;BME280;33253;42.144;25.884;2023-03-01T05:09:15;101178.91;;;5.12;100.00
47524;BME280;33253;42.144;25.884;2023-03-01T05:11:41;101187.03;;;5.18;100.00
47524;BME280;33253;42.144;25.884;2023-03-01T05:14:07;101138.94;;;4.89;100.00
47524;BME280;33253;42.144;25.884;2023-03-01T05:16:33;101142.81;;;4.83;100.00
47524;BME280;33253;42.144;25.884;2023-03-01T05:18:59;101190.84;;;5.11;100.00
47524;BME280;33253;42.144;25.884;2023-03-01T05:21:25;101199.91;;;5.19;100.00
47524;BME280;33253;42.144;25.884;2023-03-01T05:23:50;101203.63;;;5.11;100.00
47524;BME280;33253;42.144;25.884;2023-03-01T05:26:18;101197.84;;;5.14;100.00
47524;BME280;33253;42.144;25.884;2023-03-01T05:28:44;101174.81;;;5.02;100.00
47524;BME280;33253;42.144;25.884;2023-03-01T05:31:10;101203.97;;;5.16;100.00
47524;BME280;33253;42.144;25.884;2023-03-01T05:33:39;101159.25;;;4.87;100.00
47524;BME280;33253;42.144;25.884;2023-03-01T05:36:05;101207.84;;;5.11;100.00
47524;BME280;33253;42.144;25.884;2023-03-01T05:38:31;101156.94;;;4.78;100.00
47524;BME280;33253;42.144;25.884;2023-03-01T05:40:57;101205.97;;;5.08;100.00
47524;BME280;33253;42.144;25.884;2023-03-01T05:43:22;101200.97;;;5.10;100.00
47524;BME280;33253;42.144;25.884;2023-03-01T05:45:48;101184.75;;;4.85;100.00
47524;BME280;33253;42.144;25.884;2023-03-01T05:48:14;101214.97;;;5.15;100.00
47524;BME280;33253;42.144;25.884;2023-03-01T05:50:41;101222.41;;;5.12;100.00
47524;BME280;33253;42.144;25.884;2023-03-01T05:53:17;101198.66;;;5.01;100.00
47524;BME280;33253;42.144;25.884;2023-03-01T05:55:45;101231.22;;;5.15;100.00
47524;BME280;33253;42.144;25.884;2023-03-01T05:58:17;101232.56;;;5.22;100.00
47524;BME280;33253;42.144;25.884;2023-03-01T06:00:44;101230.34;;;5.15;100.00
47524;BME280;33253;42.144;25.884;2023-03-01T06:03:12;101186.63;;;4.88;100.00
47524;BME280;33253;42.144;25.884;2023-03-01T06:05:38;101233.56;;;5.12;100.00
47524;BME280;33253;42.144;25.884;2023-03-01T06:08:04;101232.22;;;5.17;100.00
47524;BME280;33253;42.144;25.884;2023-03-01T06:10:30;101212.53;;;5.05;100.00
47524;BME280;33253;42.144;25.884;2023-03-01T06:12:56;101220.97;;;5.15;100.00
47524;BME280;33253;42.144;25.884;2023-03-01T06:15:22;101079.63;;;4.21;100.00
47524;BME280;33253;42.144;25.884;2023-03-01T06:17:47;101226.66;;;5.11;100.00
47524;BME280;33253;42.144;25.884;2023-03-01T06:20:16;101223.75;;;5.18;100.00
47524;BME280;33253;42.144;25.884;2023-03-01T06:22:42;101223.53;;;5.15;100.00
47524;BME280;33253;42.144;25.884;2023-03-01T06:25:09;101222.66;;;5.15;100.00
47524;BME280;33253;42.144;25.884;2023-03-01T06:27:35;101216.66;;;5.02;100.00
47524;BME280;33253;42.144;25.884;2023-03-01T06:30:00;101229.75;;;5.19;100.00
47524;BME280;33253;42.144;25.884;2023-03-01T06:32:26;101225.50;;;5.19;100.00
47524;BME280;33253;42.144;25.884;2023-03-01T06:34:52;101229.88;;;5.21;100.00
47524;BME280;33253;42.144;25.884;2023-03-01T06:37:17;101229.09;;;5.22;100.00
47524;BME280;33253;42.144;25.884;2023-03-01T06:39:43;101189.38;;;5.03;100.00
47524;BME280;33253;42.144;25.884;2023-03-01T06:42:09;101227.31;;;5.21;100.00
47524;BME280;33253;42.144;25.884;2023-03-01T06:44:37;101222.75;;;5.28;100.00
47524;BME280;33253;42.144;25.884;2023-03-01T06:47:04;101225.94;;;5.38;100.00
47524;BME280;33253;42.144;25.884;2023-03-01T06:49:30;101228.41;;;5.36;100.00
47524;BME280;33253;42.144;25.884;2023-03-01T06:51:56;101226.19;;;5.29;100.00
47524;BME280;33253;42.144;25.884;2023-03-01T06:54:22;101223.53;;;5.27;100.00
47524;BME280;33253;42.144;25.884;2023-03-01T06:56:49;101220.97;;;5.27;100.00
47524;BME280;33253;42.144;25.884;2023-03-01T06:59:16;101224.16;;;5.37;100.00
47524;BME280;33253;42.144;25.884;2023-03-01T07:01:42;101219.56;;;5.44;100.00
47524;BME280;33253;42.144;25.884;2023-03-01T07:04:07;101226.56;;;5.47;100.00
47524;BME280;33253;42.144;25.884;2023-03-01T07:06:33;101228.84;;;5.42;100.00
47524;BME280;33253;42.144;25.884;2023-03-01T07:08:58;101197.16;;;5.28;100.00
47524;BME280;33253;42.144;25.884;2023-03-01T07:11:24;101229.81;;;5.44;100.00
47524;BME280;33253;42.144;25.884;2023-03-01T07:13:49;101230.72;;;5.45;100.00
47524;BME280;33253;42.144;25.884;2023-03-01T07:16:15;101235.78;;;5.57;100.00
47524;BME280;33253;42.144;25.884;2023-03-01T07:18:41;101192.81;;;5.27;100.00
47524;BME280;33253;42.144;25.884;2023-03-01T07:21:08;101227.22;;;5.56;100.00
47524;BME280;33253;42.144;25.884;2023-03-01T07:23:34;101224.91;;;5.47;100.00
47524;BME280;33253;42.144;25.884;2023-03-01T07:26:00;101234.13;;;5.57;100.00
47524;BME280;33253;42.144;25.884;2023-03-01T07:28:26;101203.66;;;5.48;100.00
47524;BME280;33253;42.144;25.884;2023-03-01T07:30:52;101229.97;;;5.59;100.00
47524;BME280;33253;42.144;25.884;2023-03-01T07:33:18;101201.44;;;5.41;100.00
47524;BME280;33253;42.144;25.884;2023-03-01T07:35:43;101236.31;;;5.64;100.00
47524;BME280;33253;42.144;25.884;2023-03-01T07:38:09;101243.44;;;5.69;100.00
47524;BME280;33253;42.144;25.884;2023-03-01T07:40:34;101239.19;;;5.69;100.00
47524;BME280;33253;42.144;25.884;2023-03-01T07:43:00;101231.84;;;5.74;100.00
47524;BME280;33253;42.144;25.884;2023-03-01T07:45:27;101232.94;;;5.77;100.00
47524;BME280;33253;42.144;25.884;2023-03-01T07:47:53;101232.69;;;5.86;100.00
47524;BME280;33253;42.144;25.884;2023-03-01T07:50:19;101223.38;;;5.75;100.00
47524;BME280;33253;42.144;25.884;2023-03-01T07:52:48;101224.22;;;5.87;100.00
47524;BME280;33253;42.144;25.884;2023-03-01T07:55:15;101210.97;;;5.81;100.00
47524;BME280;33253;42.144;25.884;2023-03-01T07:57:41;101225.16;;;5.76;100.00
47524;BME280;33253;42.144;25.884;2023-03-01T08:00:09;101213.13;;;5.75;100.00
47524;BME280;33253;42.144;25.884;2023-03-01T08:02:35;101213.41;;;5.79;100.00
47524;BME280;33253;42.144;25.884;2023-03-01T08:05:01;101216.97;;;5.81;100.00
47524;BME280;33253;42.144;25.884;2023-03-01T08:07:26;101225.16;;;5.76;100.00
47524;BME280;33253;42.144;25.884;2023-03-01T08:09:52;101229.38;;;5.75;100.00
47524;BME280;33253;42.144;25.884;2023-03-01T08:12:17;101223.38;;;5.75;100.00
47524;BME280;33253;42.144;25.884;2023-03-01T08:14:43;101216.78;;;5.78;100.00
47524;BME280;33253;42.144;25.884;2023-03-01T08:17:08;101207.16;;;5.62;100.00
47524;BME280;33253;42.144;25.884;2023-03-01T08:19:34;101230.97;;;5.73;100.00
47524;BME280;33253;42.144;25.884;2023-03-01T08:22:01;101221.09;;;5.79;100.00
47524;BME280;33253;42.144;25.884;2023-03-01T08:24:28;101214.09;;;5.77;100.00
47524;BME280;33253;42.144;25.884;2023-03-01T08:26:54;101229.88;;;5.83;100.00
47524;BME280;33253;42.144;25.884;2023-03-01T08:29:20;101226.66;;;5.86;100.00
47524;BME280;33253;42.144;25.884;2023-03-01T08:31:45;101232.44;;;5.83;100.00
47524;BME280;33253;42.144;25.884;2023-03-01T08:34:13;101228.44;;;5.87;100.00
47524;BME280;33253;42.144;25.884;2023-03-01T08:36:41;101229.00;;;5.82;100.00
47524;BME280;33253;42.144;25.884;2023-03-01T08:39:10;101224.22;;;5.87;100.00
47524;BME280;33253;42.144;25.884;2023-03-01T08:41:37;101230.22;;;5.88;100.00
47524;BME280;33253;42.144;25.884;2023-03-01T08:44:04;101221.84;;;5.90;100.00
47524;BME280;33253;42.144;25.884;2023-03-01T08:46:36;101179.41;;;5.69;100.00
47524;BME280;33253;42.144;25.884;2023-03-01T08:49:11;101231.56;;;5.82;100.00
47524;BME280;33253;42.144;25.884;2023-03-01T08:51:37;101231.47;;;5.81;100.00
47524;BME280;33253;42.144;25.884;2023-03-01T08:54:09;101239.72;;;5.77;100.00
47524;BME280;33253;42.144;25.884;2023-03-01T08:56:36;101231.25;;;5.78;100.00
47524;BME280;33253;42.144;25.884;2023-03-01T08:59:02;101225.34;;;5.79;100.00
47524;BME280;33253;42.144;25.884;2023-03-01T09:01:27;101236.03;;;5.85;100.00
47524;BME280;33253;42.144;25.884;2023-03-01T09:03:53;101239.38;;;5.84;100.00
47524;BME280;33253;42.144;25.884;2023-03-01T09:06:18;101233.25;;;5.82;100.00
47524;BME280;33253;42.144;25.884;2023-03-01T09:08:46;101197.88;;;5.64;100.00
47524;BME280;33253;42.144;25.884;2023-03-01T09:11:18;101226.00;;;5.88;100.00
47524;BME280;33253;42.144;25.884;2023-03-01T09:13:45;101221.53;;;5.86;100.00
47524;BME280;33253;42.144;25.884;2023-03-01T09:16:13;101225.44;;;5.80;100.00
47524;BME280;33253;42.144;25.884;2023-03-01T09:18:39;101207.63;;;5.82;100.00
47524;BME280;33253;42.144;25.884;2023-03-01T09:21:13;101222.25;;;5.96;100.00
47524;BME280;33253;42.144;25.884;2023-03-01T09:23:41;101203.88;;;6.02;100.00
47524;BME280;33253;42.144;25.884;2023-03-01T09:26:09;101213.22;;;6.02;100.00
47524;BME280;33253;42.144;25.884;2023-03-01T09:28:38;101217.22;;;5.98;100.00
47524;BME280;33253;42.144;25.884;2023-03-01T09:31:05;101217.13;;;5.96;100.00
47524;BME280;33253;42.144;25.884;2023-03-01T09:33:32;101213.78;;;5.97;100.00
47524;BME280;33253;42.144;25.884;2023-03-01T09:36:02;101169.94;;;5.67;100.00
47524;BME280;33253;42.144;25.884;2023-03-01T09:38:28;101212.00;;;5.96;100.00
47524;BME280;33253;42.144;25.884;2023-03-01T09:40:53;101214.38;;;5.93;100.00
47524;BME280;33253;42.144;25.884;2023-03-01T09:46:08;101208.34;;;6.05;100.00
47524;BME280;33253;42.144;25.884;2023-03-01T09:49:01;101218.34;;;6.02;100.00
47524;BME280;33253;42.144;25.884;2023-03-01T09:51:35;101219.94;;;5.99;100.00
47524;BME280;33253;42.144;25.884;2023-03-01T09:54:02;101225.72;;;5.97;100.00
47524;BME280;33253;42.144;25.884;2023-03-01T09:56:50;101229.94;;;5.96;100.00
47524;BME280;33253;42.144;25.884;2023-03-01T10:02:28;101226.59;;;6.09;100.00
47524;BME280;33253;42.144;25.884;2023-03-01T10:05:19;101220.56;;;6.09;100.00
47524;BME280;33253;42.144;25.884;2023-03-01T10:11:00;101221.28;;;6.20;100.00
47524;BME280;33253;42.144;25.884;2023-03-01T10:19:05;101207.09;;;6.25;100.00
47524;BME280;33253;42.144;25.884;2023-03-01T10:21:35;101208.19;;;6.28;100.00
47524;BME280;33253;42.144;25.884;2023-03-01T10:24:14;101207.50;;;6.31;100.00
47524;BME280;33253;42.144;25.884;2023-03-01T10:29:10;101198.66;;;6.39;100.00
47524;BME280;33253;42.144;25.884;2023-03-01T10:31:43;101155.19;;;6.15;100.00
47524;BME280;33253;42.144;25.884;2023-03-01T10:34:35;101169.53;;;6.39;100.00
47524;BME280;33253;42.144;25.884;2023-03-01T10:37:13;101167.97;;;6.41;100.00
47524;BME280;33253;42.144;25.884;2023-03-01T10:40:06;101170.63;;;6.42;100.00
47524;BME280;33253;42.144;25.884;2023-03-01T10:42:39;101176.31;;;6.52;100.00
47524;BME280;33253;42.144;25.884;2023-03-01T10:45:16;101167.66;;;6.50;100.00
47524;BME280;33253;42.144;25.884;2023-03-01T10:47:42;101160.53;;;6.45;100.00
47524;BME280;33253;42.144;25.884;2023-03-01T10:50:20;101166.28;;;6.55;100.00
47524;BME280;33253;42.144;25.884;2023-03-01T10:53:00;101113.31;;;6.28;100.00
47524;BME280;33253;42.144;25.884;2023-03-01T10:58:19;101161.63;;;6.49;100.00
47524;BME280;33253;42.144;25.884;2023-03-01T11:03:35;101157.19;;;6.46;100.00
47524;BME280;33253;42.144;25.884;2023-03-01T11:06:14;101153.44;;;6.41;100.00
47524;BME280;33253;42.144;25.884;2023-03-01T11:08:47;101108.25;;;6.17;100.00
47524;BME280;33253;42.144;25.884;2023-03-01T11:14:20;101154.44;;;6.43;100.00
47524;BME280;33253;42.144;25.884;2023-03-01T11:17:28;101153.06;;;6.48;100.00
47524;BME280;33253;42.144;25.884;2023-03-01T11:20:16;101152.66;;;6.42;100.00
47524;BME280;33253;42.144;25.884;2023-03-01T11:22:49;101152.06;;;6.46;100.00
47524;BME280;33253;42.144;25.884;2023-03-01T11:25:17;101155.03;;;6.53;100.00
47524;BME280;33253;42.144;25.884;2023-03-01T11:27:45;101140.72;;;6.43;100.00
47524;BME280;33253;42.144;25.884;2023-03-01T11:32:53;101143.97;;;6.40;100.00
47524;BME280;33253;42.144;25.884;2023-03-01T11:35:24;101139.94;;;6.44;100.00
47524;BME280;33253;42.144;25.884;2023-03-01T11:38:18;101139.75;;;6.41;100.00
47524;BME280;33253;42.144;25.884;2023-03-01T11:41:05;101132.94;;;6.41;100.00
47524;BME280;33253;42.144;25.884;2023-03-01T11:54:47;101120.59;;;6.49;100.00
47524;BME280;33253;42.144;25.884;2023-03-01T11:57:43;101110.94;;;6.45;100.00
47524;BME280;33253;42.144;25.884;2023-03-01T12:15:01;101060.16;;;6.26;100.00
47524;BME280;33253;42.144;25.884;2023-03-01T12:17:36;101106.88;;;6.48;100.00
47524;BME280;33253;42.144;25.884;2023-03-01T12:20:32;101080.66;;;6.39;100.00
47524;BME280;33253;42.144;25.884;2023-03-01T12:23:33;101100.38;;;6.54;100.00
47524;BME280;33253;42.144;25.884;2023-03-01T12:29:06;101096.94;;;6.53;100.00
47524;BME280;33253;42.144;25.884;2023-03-01T12:37:14;101092.59;;;6.52;100.00
47524;BME280;33253;42.144;25.884;2023-03-01T12:50:50;101089.31;;;6.41;100.00
47524;BME280;33253;42.144;25.884;2023-03-01T12:53:26;101099.66;;;6.43;100.00
47524;BME280;33253;42.144;25.884;2023-03-01T12:56:08;101107.66;;;6.47;100.00
47524;BME280;33253;42.144;25.884;2023-03-01T13:01:26;101116.25;;;6.35;100.00
47524;BME280;33253;42.144;25.884;2023-03-01T13:04:16;101113.31;;;6.42;100.00
47524;BME280;33253;42.144;25.884;2023-03-01T13:09:48;101059.16;;;6.10;100.00
47524;BME280;33253;42.144;25.884;2023-03-01T13:17:53;101104.94;;;6.44;100.00
47524;BME280;33253;42.144;25.884;2023-03-01T13:20:33;101087.28;;;6.36;100.00
47524;BME280;33253;42.144;25.884;2023-03-01T13:23:06;101103.91;;;6.29;100.00
47524;BME280;33253;42.144;25.884;2023-03-01T13:25:33;101100.88;;;6.35;100.00
47524;BME280;33253;42.144;25.884;2023-03-01T13:31:04;101094.16;;;6.37;100.00
47524;BME280;33253;42.144;25.884;2023-03-01T13:35:58;101089.72;;;6.34;100.00
47524;BME280;33253;42.144;25.884;2023-03-01T13:38:47;101096.72;;;6.37;100.00
47524;BME280;33253;42.144;25.884;2023-03-01T13:41:24;101101.84;;;6.37;100.00
47524;BME280;33253;42.144;25.884;2023-03-01T13:43:46;101099.09;;;6.34;100.00
47524;BME280;33253;42.144;25.884;2023-03-01T13:46:23;101086.19;;;6.32;100.00
47524;BME280;33253;42.144;25.884;2023-03-01T13:48:51;101085.78;;;6.39;100.00
47524;BME280;33253;42.144;25.884;2023-03-01T13:51:23;101075.22;;;6.35;100.00
47524;BME280;33253;42.144;25.884;2023-03-01T13:53:51;101046.06;;;6.06;100.00
47524;BME280;33253;42.144;25.884;2023-03-01T13:56:26;101090.00;;;6.25;100.00
47524;BME280;33253;42.144;25.884;2023-03-01T13:59:23;100993.97;;;5.80;100.00
47524;BME280;33253;42.144;25.884;2023-03-01T14:01:59;101086.47;;;6.23;100.00
47524;BME280;33253;42.144;25.884;2023-03-01T14:04:27;101082.91;;;6.21;100.00
47524;BME280;33253;42.144;25.884;2023-03-01T14:07:18;101075.91;;;6.19;100.00
47524;BME280;33253;42.144;25.884;2023-03-01T14:09:47;101065.28;;;6.12;100.00
47524;BME280;33253;42.144;25.884;2023-03-01T14:20:32;101086.47;;;6.23;100.00
47524;BME280;33253;42.144;25.884;2023-03-01T14:23:02;101050.59;;;6.10;100.00
47524;BME280;33253;42.144;25.884;2023-03-01T14:25:36;101092.09;;;6.31;100.00
47524;BME280;33253;42.144;25.884;2023-03-01T14:28:18;101092.88;;;6.30;100.00
47524;BME280;33253;42.144;25.884;2023-03-01T14:30:49;101045.06;;;6.04;100.00
47524;BME280;33253;42.144;25.884;2023-03-01T14:33:36;101092.56;;;6.25;100.00
47524;BME280;33253;42.144;25.884;2023-03-01T14:36:09;101103.13;;;6.30;100.00
47524;BME280;33253;42.144;25.884;2023-03-01T14:41:18;101110.03;;;6.18;100.00
47524;BME280;33253;42.144;25.884;2023-03-01T14:43:53;101108.94;;;6.14;100.00
47524;BME280;33253;42.144;25.884;2023-03-01T14:46:28;101107.16;;;6.13;100.00